createdAt,value
2023-04-03T00:01:11.341Z,0.70
2023-04-03T00:03:38.285Z,1.13
2023-04-03T00:06:07.893Z,0.88
2023-04-03T00:08:34.891Z,1.05
2023-04-03T00:11:01.793Z,0.88
2023-04-03T00:13:28.754Z,0.95
2023-04-03T00:15:55.770Z,1.05
2023-04-03T00:18:23.299Z,1.08
2023-04-03T00:20:50.582Z,0.90
2023-04-03T00:23:17.509Z,1.13
2023-04-03T00:25:44.692Z,0.93
2023-04-03T00:28:12.191Z,1.35
2023-04-03T00:30:39.205Z,1.23
2023-04-03T00:33:06.474Z,1.00
2023-04-03T00:35:35.057Z,0.68
2023-04-03T00:38:02.082Z,0.80
2023-04-03T00:40:34.293Z,1.48
2023-04-03T00:43:16.321Z,0.80
2023-04-03T00:45:46.224Z,1.35
2023-04-03T00:48:21.151Z,1.65
2023-04-03T00:50:48.893Z,2.15
2023-04-03T00:53:26.683Z,1.33
2023-04-03T00:55:56.701Z,1.65
2023-04-03T00:58:31.989Z,0.85
2023-04-03T01:01:00.074Z,1.08
2023-04-03T01:03:27.194Z,0.73
2023-04-03T01:05:54.263Z,0.80
2023-04-03T01:08:21.379Z,0.73
2023-04-03T01:10:48.283Z,1.02
2023-04-03T01:13:41.866Z,0.73
2023-04-03T01:16:09.550Z,1.30
2023-04-03T01:18:39.613Z,1.02
2023-04-03T01:21:38.987Z,1.27
2023-04-03T01:24:31.428Z,0.90
2023-04-03T01:26:58.792Z,0.90
2023-04-03T01:29:25.847Z,0.88
2023-04-03T01:31:56.555Z,1.00
2023-04-03T01:34:23.723Z,0.80
2023-04-03T01:36:51.930Z,0.80
2023-04-03T01:39:19.441Z,0.98
2023-04-03T01:41:46.741Z,1.00
2023-04-03T01:44:14.094Z,0.80
2023-04-03T01:46:42.367Z,0.77
2023-04-03T01:49:09.721Z,1.15
2023-04-03T01:51:36.672Z,1.00
2023-04-03T01:54:03.933Z,0.73
2023-04-03T01:56:30.875Z,0.77
2023-04-03T01:58:57.727Z,1.05
2023-04-03T02:01:24.689Z,1.48
2023-04-03T02:03:51.917Z,1.10
2023-04-03T02:06:18.805Z,1.95
2023-04-03T02:08:45.683Z,0.95
2023-04-03T02:11:12.555Z,0.90
2023-04-03T02:13:39.515Z,0.85
2023-04-03T02:16:11.102Z,1.00
2023-04-03T02:18:39.271Z,0.80
2023-04-03T02:21:06.715Z,0.75
2023-04-03T02:23:34.695Z,0.77
2023-04-03T02:26:10.328Z,1.02
2023-04-03T02:28:37.501Z,1.38
2023-04-03T02:31:05.910Z,0.90
2023-04-03T02:33:32.991Z,1.02
2023-04-03T02:36:00.108Z,1.00
2023-04-03T02:38:27.319Z,0.80
2023-04-03T02:40:54.148Z,0.95
2023-04-03T02:43:21.059Z,1.10
2023-04-03T02:45:47.933Z,1.17
2023-04-03T02:48:15.922Z,1.25
2023-04-03T02:50:42.872Z,1.00
2023-04-03T02:53:09.748Z,1.40
2023-04-03T02:55:36.715Z,1.20
2023-04-03T02:58:04.617Z,0.90
2023-04-03T03:00:31.761Z,0.88
2023-04-03T03:02:58.763Z,0.80
2023-04-03T03:05:25.856Z,0.68
2023-04-03T03:07:52.859Z,1.45
2023-04-03T03:10:20.173Z,0.70
2023-04-03T03:12:47.542Z,0.95
2023-04-03T03:15:14.519Z,1.27
2023-04-03T03:17:41.429Z,1.48
2023-04-03T03:20:09.162Z,1.10
2023-04-03T03:22:36.234Z,1.13
2023-04-03T03:25:04.057Z,0.90
2023-04-03T03:27:30.932Z,0.98
2023-04-03T03:29:57.858Z,1.02
2023-04-03T03:32:24.800Z,0.80
2023-04-03T03:34:52.446Z,0.73
2023-04-03T03:37:19.347Z,1.30
2023-04-03T03:39:46.221Z,1.27
2023-04-03T03:42:13.152Z,0.82
2023-04-03T03:44:40.334Z,1.38
2023-04-03T03:47:07.234Z,1.48
2023-04-03T03:49:34.141Z,1.33
2023-04-03T03:52:01.221Z,1.13
2023-04-03T03:54:28.085Z,0.80
2023-04-03T03:56:54.998Z,1.13
2023-04-03T03:59:22.035Z,0.90
2023-04-03T04:01:48.914Z,1.08
2023-04-03T04:04:15.938Z,1.00
2023-04-03T04:06:42.906Z,0.85
2023-04-03T04:09:10.915Z,1.13
2023-04-03T04:11:37.865Z,0.95
2023-04-03T04:14:04.762Z,0.90
2023-04-03T04:16:31.756Z,0.88
2023-04-03T04:18:58.626Z,1.00
2023-04-03T04:21:25.663Z,1.10
2023-04-03T04:23:52.509Z,1.45
2023-04-03T04:26:19.388Z,1.25
2023-04-03T04:28:46.244Z,2.28
2023-04-03T04:31:13.175Z,1.23
2023-04-03T04:33:40.125Z,1.38
2023-04-03T04:36:07.397Z,1.95
2023-04-03T04:38:34.286Z,1.40
2023-04-03T04:41:01.216Z,2.38
2023-04-03T04:43:28.364Z,1.13
2023-04-03T04:46:05.221Z,1.63
2023-04-03T04:48:32.812Z,1.30
2023-04-03T04:50:59.972Z,1.25
2023-04-03T04:53:26.895Z,0.73
2023-04-03T04:55:54.314Z,1.33
2023-04-03T04:58:21.724Z,1.63
2023-04-03T05:00:48.718Z,1.17
2023-04-03T05:03:15.874Z,1.48
2023-04-03T05:05:42.843Z,1.23
2023-04-03T05:08:09.701Z,0.77
2023-04-03T05:10:36.638Z,0.80
2023-04-03T05:13:03.498Z,1.10
2023-04-03T05:15:30.346Z,1.30
2023-04-03T05:17:57.240Z,1.08
2023-04-03T05:20:24.288Z,2.25
2023-04-03T05:22:51.152Z,1.17
2023-04-03T05:25:18.096Z,1.30
2023-04-03T05:27:45.005Z,1.38
2023-04-03T05:30:12.442Z,1.10
2023-04-03T05:32:39.320Z,0.90
2023-04-03T05:35:06.875Z,1.27
2023-04-03T05:37:34.412Z,1.30
2023-04-03T05:40:01.603Z,2.13
2023-04-03T05:42:28.593Z,1.23
2023-04-03T05:44:55.434Z,1.48
2023-04-03T05:47:22.355Z,1.33
2023-04-03T05:49:49.577Z,1.50
2023-04-03T05:52:24.579Z,1.30
2023-04-03T05:54:51.659Z,1.17
2023-04-03T05:57:19.417Z,1.27
2023-04-03T05:59:47.764Z,1.17
2023-04-03T06:02:20.502Z,1.35
2023-04-03T06:04:48.863Z,0.98
2023-04-03T06:07:22.234Z,1.08
2023-04-03T06:09:52.997Z,1.17
2023-04-03T06:12:20.896Z,1.48
2023-04-03T06:14:47.832Z,1.50
2023-04-03T06:17:16.373Z,0.90
2023-04-03T06:19:43.398Z,1.42
2023-04-03T06:22:10.267Z,1.00
2023-04-03T06:24:38.235Z,0.75
2023-04-03T06:27:05.628Z,1.38
2023-04-03T06:29:32.519Z,1.35
2023-04-03T06:31:59.468Z,0.98
2023-04-03T06:34:26.837Z,1.20
2023-04-03T06:36:53.760Z,1.00
2023-04-03T06:39:23.577Z,0.98
2023-04-03T06:41:51.767Z,1.27
2023-04-03T06:44:18.956Z,1.30
2023-04-03T06:46:47.596Z,0.80
2023-04-03T06:49:15.064Z,0.85
2023-04-03T06:51:41.930Z,1.10
2023-04-03T06:54:09.415Z,1.02
2023-04-03T06:56:36.924Z,1.10
2023-04-03T06:59:03.931Z,1.02
2023-04-03T07:01:31.267Z,1.08
2023-04-03T07:03:58.453Z,1.40
2023-04-03T07:06:28.099Z,0.80
2023-04-03T07:08:55.558Z,1.00
2023-04-03T07:11:23.484Z,1.00
2023-04-03T07:13:51.082Z,1.17
2023-04-03T07:16:18.120Z,0.93
2023-04-03T07:18:45.864Z,1.27
2023-04-03T07:21:13.005Z,0.95
2023-04-03T07:23:39.958Z,1.00
2023-04-03T07:26:07.650Z,0.77
2023-04-03T07:28:34.683Z,0.75
2023-04-03T07:31:09.689Z,1.10
2023-04-03T07:33:38.384Z,1.20
2023-04-03T07:36:08.347Z,1.15
2023-04-03T07:38:36.596Z,1.10
2023-04-03T07:41:05.050Z,1.17
2023-04-03T07:43:31.920Z,1.38
2023-04-03T07:46:00.048Z,1.05
2023-04-03T07:48:27.665Z,1.52
2023-04-03T07:50:54.647Z,1.15
2023-04-03T07:53:21.770Z,1.33
2023-04-03T07:55:50.171Z,1.65
2023-04-03T07:58:19.145Z,0.73
2023-04-03T08:00:46.692Z,1.27
2023-04-03T08:03:14.100Z,1.02
2023-04-03T08:05:42.777Z,0.88
2023-04-03T08:08:12.836Z,0.80
2023-04-03T08:10:40.358Z,0.90
2023-04-03T08:13:08.415Z,0.90
2023-04-03T08:15:36.263Z,1.23
2023-04-03T08:18:03.850Z,1.05
2023-04-03T08:20:30.822Z,1.13
2023-04-03T08:22:57.872Z,1.08
2023-04-03T08:25:24.851Z,1.52
2023-04-03T08:27:51.707Z,1.40
2023-04-03T08:30:18.681Z,1.08
2023-04-03T08:32:45.942Z,0.80
2023-04-03T08:35:13.184Z,0.82
2023-04-03T08:37:40.979Z,1.00
2023-04-03T08:40:14.422Z,1.08
2023-04-03T08:43:24.038Z,1.05
2023-04-03T08:45:54.860Z,0.90
2023-04-03T08:48:39.443Z,1.02
2023-04-03T08:51:16.405Z,0.98
2023-04-03T08:54:05.335Z,1.10
2023-04-03T08:56:34.422Z,0.63
2023-04-03T08:59:06.398Z,1.08
2023-04-03T09:01:39.206Z,0.82
2023-04-03T09:04:16.037Z,1.10
2023-04-03T09:06:58.693Z,0.90
2023-04-03T09:09:34.122Z,2.05
2023-04-03T09:12:19.390Z,2.03
2023-04-03T09:14:49.880Z,0.97
2023-04-03T09:17:46.375Z,0.75
2023-04-03T09:22:53.933Z,1.02
2023-04-03T09:25:36.995Z,0.77
2023-04-03T09:28:04.715Z,1.38
2023-04-03T09:30:31.841Z,2.17
2023-04-03T09:32:59.215Z,1.20
2023-04-03T09:35:40.592Z,1.33
2023-04-03T09:38:15.082Z,1.02
2023-04-03T09:40:44.789Z,0.73
2023-04-03T09:43:31.592Z,0.80
2023-04-03T09:46:32.206Z,1.17
2023-04-03T09:49:08.812Z,1.10
2023-04-03T09:51:38.418Z,1.00
2023-04-03T09:54:39.541Z,1.08
2023-04-03T09:57:14.106Z,1.02
2023-04-03T10:00:06.053Z,1.27
2023-04-03T10:02:41.042Z,1.38
2023-04-03T10:05:34.725Z,3.03
2023-04-03T10:08:27.265Z,0.55
2023-04-03T10:11:12.653Z,0.85
2023-04-03T10:14:01.106Z,0.93
2023-04-03T10:16:38.438Z,0.60
2023-04-03T10:19:36.893Z,1.33
2023-04-03T10:22:04.920Z,1.52
2023-04-03T10:24:37.553Z,0.95
2023-04-03T10:27:11.997Z,1.05
2023-04-03T10:29:56.753Z,1.40
2023-04-03T10:32:40.227Z,0.80
2023-04-03T10:35:21.733Z,1.00
2023-04-03T10:38:13.114Z,0.88
2023-04-03T10:41:00.400Z,0.73
2023-04-03T10:43:40.363Z,0.70
2023-04-03T10:46:10.314Z,0.82
2023-04-03T10:49:02.890Z,0.88
2023-04-03T10:51:47.402Z,1.60
2023-04-03T10:54:33.532Z,0.68
2023-04-03T10:57:12.559Z,1.15
2023-04-03T10:59:57.998Z,1.08
2023-04-03T11:02:33.803Z,1.20
2023-04-03T11:05:04.770Z,0.80
2023-04-03T11:07:41.978Z,1.15
2023-04-03T11:10:24.674Z,1.13
2023-04-03T11:13:18.808Z,0.60
2023-04-03T11:15:47.605Z,0.73
2023-04-03T11:18:23.704Z,0.77
2023-04-03T11:21:02.746Z,1.20
2023-04-03T11:23:49.073Z,0.90
2023-04-03T11:26:23.689Z,1.52
2023-04-03T11:29:00.003Z,0.80
2023-04-03T11:32:04.187Z,1.13
2023-04-03T11:34:42.771Z,1.42
2023-04-03T11:37:38.916Z,0.70
2023-04-03T11:40:19.637Z,0.70
2023-04-03T11:42:53.948Z,0.77
2023-04-03T11:45:26.675Z,0.50
2023-04-03T11:47:59.655Z,0.70
2023-04-03T11:50:42.688Z,0.50
2023-04-03T11:53:09.935Z,1.13
2023-04-03T11:55:51.850Z,0.60
2023-04-03T11:58:37.417Z,1.00
2023-04-03T12:01:12.061Z,1.05
2023-04-03T12:03:41.726Z,1.00
2023-04-03T12:06:10.864Z,1.17
2023-04-03T12:08:40.633Z,0.70
2023-04-03T12:11:10.697Z,1.50
2023-04-03T12:13:40.682Z,0.88
2023-04-03T12:16:19.885Z,1.05
2023-04-03T12:18:56.555Z,0.90
2023-04-03T12:21:35.084Z,0.60
2023-04-03T12:24:09.890Z,0.63
2023-04-03T12:27:14.360Z,0.63
2023-04-03T12:29:52.428Z,0.63
2023-04-03T12:32:44.307Z,1.00
2023-04-03T12:35:32.550Z,0.60
2023-04-03T12:38:21.603Z,0.85
2023-04-03T12:41:15.632Z,0.47
2023-04-03T12:43:54.973Z,0.80
2023-04-03T12:46:25.740Z,0.50
2023-04-03T12:48:58.684Z,0.60
2023-04-03T12:51:43.712Z,0.73
2023-04-03T12:54:28.876Z,0.80
2023-04-03T12:57:12.284Z,0.60
2023-04-03T12:59:39.322Z,0.50
2023-04-03T13:02:26.584Z,0.40
2023-04-03T13:04:55.834Z,0.70
2023-04-03T13:07:31.906Z,0.55
2023-04-03T13:10:14.272Z,0.70
2023-04-03T13:12:56.132Z,0.30
2023-04-03T13:15:30.536Z,0.80
2023-04-03T13:17:57.903Z,0.60
2023-04-03T13:20:36.785Z,0.90
2023-04-03T13:23:09.955Z,0.40
2023-04-03T13:25:42.766Z,0.60
2023-04-03T13:28:14.573Z,0.93
2023-04-03T13:30:51.360Z,0.82
2023-04-03T13:33:28.571Z,0.68
2023-04-03T13:36:06.091Z,0.60
2023-04-03T13:38:34.923Z,0.40
2023-04-03T13:41:22.363Z,0.47
2023-04-03T13:43:49.929Z,0.55
2023-04-03T13:46:16.988Z,0.63
2023-04-03T13:48:45.275Z,0.22
2023-04-03T13:51:16.084Z,0.70
2023-04-03T13:53:52.054Z,0.60
2023-04-03T13:56:27.960Z,0.57
2023-04-03T13:59:05.487Z,1.15
2023-04-03T14:01:39.965Z,0.82
2023-04-03T14:04:45.363Z,0.57
2023-04-03T14:07:13.986Z,0.60
2023-04-03T14:09:41.048Z,0.73
2023-04-03T14:12:30.272Z,0.60
2023-04-03T14:14:58.647Z,0.80
2023-04-03T14:17:27.532Z,0.57
2023-04-03T14:19:56.678Z,1.10
2023-04-03T14:22:26.833Z,0.50
2023-04-03T14:24:54.035Z,0.40
2023-04-03T14:27:27.809Z,0.30
2023-04-03T14:29:56.813Z,0.50
2023-04-03T14:32:25.882Z,0.95
2023-04-03T14:34:54.134Z,0.63
2023-04-03T14:37:24.832Z,0.50
2023-04-03T14:39:54.436Z,0.90
2023-04-03T14:42:25.313Z,0.70
2023-04-03T14:44:52.917Z,0.60
2023-04-03T14:47:31.189Z,0.50
2023-04-03T14:50:04.915Z,0.68
2023-04-03T14:52:34.755Z,0.30
2023-04-03T14:55:02.912Z,0.50
2023-04-03T14:57:31.618Z,0.60
2023-04-03T14:59:59.014Z,0.40
2023-04-03T15:02:31.941Z,0.68
2023-04-03T15:05:01.101Z,0.73
2023-04-03T15:07:31.144Z,0.60
2023-04-03T15:09:58.278Z,0.82
2023-04-03T15:12:26.486Z,0.40
2023-04-03T15:15:00.823Z,1.05
2023-04-03T15:17:29.962Z,0.80
2023-04-03T15:19:57.025Z,0.63
2023-04-03T15:22:23.902Z,0.50
2023-04-03T15:24:51.101Z,0.82
2023-04-03T15:27:18.412Z,0.70
2023-04-03T15:29:46.172Z,1.27
2023-04-03T15:32:14.292Z,0.82
2023-04-03T15:34:41.529Z,0.63
2023-04-03T15:37:08.575Z,2.38
2023-04-03T15:39:35.594Z,0.30
2023-04-03T15:42:07.123Z,1.20
2023-04-03T15:44:37.262Z,1.02
2023-04-03T15:47:04.353Z,0.50
2023-04-03T15:49:34.412Z,0.60
2023-04-03T15:52:01.434Z,0.57
2023-04-03T15:54:30.581Z,0.50
2023-04-03T15:56:57.923Z,0.45
2023-04-03T15:59:25.042Z,2.65
2023-04-03T16:01:53.486Z,0.70
2023-04-03T16:04:21.911Z,0.60
2023-04-03T16:06:49.617Z,0.70
2023-04-03T16:09:16.817Z,0.68
2023-04-03T16:11:44.510Z,0.77
2023-04-03T16:14:11.684Z,1.13
2023-04-03T16:16:39.281Z,0.77
2023-04-03T16:19:06.865Z,0.52
2023-04-03T16:21:34.440Z,1.00
2023-04-03T16:24:02.166Z,0.85
2023-04-03T16:26:29.044Z,0.95
2023-04-03T16:28:56.098Z,0.57
2023-04-03T16:31:24.989Z,0.63
2023-04-03T16:33:52.072Z,0.90
2023-04-03T16:36:19.108Z,0.50
2023-04-03T16:38:46.267Z,0.68
2023-04-03T16:41:13.228Z,0.77
2023-04-03T16:43:40.116Z,0.60
2023-04-03T16:46:07.146Z,1.17
2023-04-03T16:48:34.139Z,0.70
2023-04-03T16:51:01.322Z,0.70
2023-04-03T16:53:29.073Z,1.30
2023-04-03T16:55:57.964Z,1.30
2023-04-03T16:58:25.023Z,0.60
2023-04-03T17:00:52.211Z,1.27
2023-04-03T17:03:19.223Z,1.20
2023-04-03T17:05:49.226Z,1.45
2023-04-03T17:08:18.314Z,0.93
2023-04-03T17:10:45.283Z,1.55
2023-04-03T17:13:12.181Z,1.10
2023-04-03T17:15:39.387Z,1.00
2023-04-03T17:18:07.397Z,2.03
2023-04-03T17:20:34.841Z,1.02
2023-04-03T17:23:01.950Z,1.00
2023-04-03T17:25:28.871Z,0.73
2023-04-03T17:27:55.786Z,0.60
2023-04-03T17:30:23.386Z,1.77
2023-04-03T17:32:50.285Z,0.77
2023-04-03T17:35:17.259Z,1.95
2023-04-03T17:37:44.154Z,1.35
2023-04-03T17:40:14.323Z,2.53
2023-04-03T17:42:41.353Z,2.30
2023-04-03T17:45:08.732Z,3.70
2023-04-03T17:47:35.821Z,2.33
2023-04-03T17:50:02.731Z,2.55
2023-04-03T17:52:31.970Z,2.13
2023-04-03T17:54:58.900Z,2.72
2023-04-03T17:57:25.818Z,4.75
2023-04-03T17:59:54.114Z,2.40
2023-04-03T18:02:21.263Z,3.63
2023-04-03T18:04:48.228Z,1.75
2023-04-03T18:07:15.116Z,3.33
2023-04-03T18:09:42.535Z,3.30
2023-04-03T18:12:10.590Z,3.75
2023-04-03T18:14:39.249Z,3.75
2023-04-03T18:17:06.366Z,3.17
2023-04-03T18:19:33.836Z,3.38
2023-04-03T18:22:14.219Z,3.60
2023-04-03T18:24:43.571Z,4.32
2023-04-03T18:27:14.139Z,3.60
2023-04-03T18:29:43.691Z,3.15
2023-04-03T18:32:13.586Z,2.33
2023-04-03T18:34:40.779Z,2.42
2023-04-03T18:37:07.756Z,2.42
2023-04-03T18:39:34.958Z,2.10
2023-04-03T18:42:09.643Z,1.90
2023-04-03T18:44:38.237Z,1.30
2023-04-03T18:47:05.440Z,2.03
2023-04-03T18:49:34.272Z,1.42
2023-04-03T18:52:01.178Z,1.27
2023-04-03T18:54:28.182Z,0.73
2023-04-03T18:56:55.061Z,1.20
2023-04-03T18:59:22.103Z,1.10
2023-04-03T19:01:49.158Z,0.75
2023-04-03T19:04:16.272Z,1.23
2023-04-03T19:06:44.385Z,1.30
2023-04-03T19:09:11.464Z,1.15
2023-04-03T19:11:38.356Z,2.03
2023-04-03T19:14:16.045Z,1.17
2023-04-03T19:16:44.728Z,1.65
2023-04-03T19:19:12.204Z,1.20
2023-04-03T19:21:41.498Z,1.85
2023-04-03T19:24:13.059Z,1.55
2023-04-03T19:26:41.492Z,1.58
2023-04-03T19:29:09.341Z,1.52
2023-04-03T19:31:37.355Z,1.60
2023-04-03T19:34:05.629Z,1.77
2023-04-03T19:36:33.915Z,2.35
2023-04-03T19:39:00.932Z,1.95
2023-04-03T19:41:30.880Z,2.55
2023-04-03T19:43:58.254Z,1.40
2023-04-03T19:46:26.972Z,1.33
2023-04-03T19:48:54.290Z,2.08
2023-04-03T19:51:21.358Z,1.23
2023-04-03T19:53:48.634Z,1.20
2023-04-03T19:56:20.848Z,1.58
2023-04-03T19:58:53.781Z,1.10
2023-04-03T20:01:27.104Z,1.60
2023-04-03T20:03:54.121Z,1.70
2023-04-03T20:06:21.847Z,1.45
2023-04-03T20:08:49.345Z,0.90
2023-04-03T20:11:16.272Z,0.70
2023-04-03T20:13:43.179Z,1.30
2023-04-03T20:16:10.344Z,1.90
2023-04-03T20:18:38.753Z,1.77
2023-04-03T20:21:06.859Z,1.80
2023-04-03T20:23:34.664Z,1.45
2023-04-03T20:26:11.625Z,1.48
2023-04-03T20:28:43.111Z,1.38
2023-04-03T20:31:12.143Z,1.63
2023-04-03T20:33:39.167Z,1.27
2023-04-03T20:36:06.238Z,1.30
2023-04-03T20:38:33.177Z,1.83
2023-04-03T20:41:00.406Z,2.25
2023-04-03T20:43:28.430Z,2.35
2023-04-03T20:45:55.740Z,2.15
2023-04-03T20:48:22.837Z,2.65
2023-04-03T20:50:49.806Z,2.38
2023-04-03T20:53:19.061Z,2.92
2023-04-03T20:55:57.532Z,2.97
2023-04-03T20:58:25.149Z,2.97
2023-04-03T21:00:56.536Z,2.03
2023-04-03T21:03:25.385Z,2.78
2023-04-03T21:06:01.113Z,2.25
2023-04-03T21:11:52.580Z,2.28
2023-04-03T21:14:56.949Z,2.22
2023-04-03T21:17:23.682Z,2.72
2023-04-03T21:19:50.548Z,2.08
2023-04-03T21:22:17.522Z,2.08
2023-04-03T21:24:44.776Z,2.00
2023-04-03T21:27:11.812Z,3.03
2023-04-03T21:29:38.983Z,2.28
2023-04-03T21:32:06.368Z,2.22
2023-04-03T21:34:33.740Z,2.20
2023-04-03T21:37:08.793Z,2.63
2023-04-03T21:39:36.685Z,3.15
2023-04-03T21:42:03.892Z,2.08
2023-04-03T21:44:30.957Z,2.55
2023-04-03T21:46:58.033Z,1.95
2023-04-03T21:49:25.910Z,3.38
2023-04-03T21:51:52.839Z,2.20
2023-04-03T21:54:20.334Z,2.72
2023-04-03T21:56:51.659Z,3.30
2023-04-03T21:59:18.852Z,2.40
2023-04-03T22:01:46.062Z,1.80
2023-04-03T22:04:13.118Z,2.42
2023-04-03T22:06:40.028Z,2.20
2023-04-03T22:09:07.277Z,1.88
2023-04-03T22:11:34.168Z,2.10
2023-04-03T22:14:01.075Z,2.45
2023-04-03T22:16:28.033Z,1.90
2023-04-03T22:18:57.037Z,2.20
2023-04-03T22:21:23.918Z,2.67
2023-04-03T22:23:50.922Z,3.03
2023-04-03T22:26:17.795Z,7.75
2023-04-03T22:28:47.023Z,8.07
2023-04-03T22:31:16.290Z,6.50
2023-04-03T22:33:45.647Z,6.45
2023-04-03T22:36:14.137Z,6.90
2023-04-03T22:38:44.985Z,7.53
2023-04-03T22:41:12.456Z,5.90
2023-04-03T22:43:40.165Z,6.90
2023-04-03T22:46:16.906Z,5.30
2023-04-03T22:48:45.357Z,6.55
2023-04-03T22:51:12.986Z,4.70
2023-04-03T22:53:39.864Z,2.90
2023-04-03T22:56:11.320Z,3.50
2023-04-03T22:58:39.084Z,4.00
2023-04-03T23:01:08.347Z,3.10
2023-04-03T23:03:36.703Z,2.80
2023-04-03T23:06:04.914Z,2.25
2023-04-03T23:08:34.536Z,2.53
2023-04-03T23:11:02.529Z,2.65
2023-04-03T23:13:29.884Z,2.28
2023-04-03T23:16:01.086Z,2.25
2023-04-03T23:18:29.781Z,2.63
2023-04-03T23:20:58.953Z,2.33
2023-04-03T23:23:25.914Z,2.20
2023-04-03T23:25:53.739Z,1.55
2023-04-03T23:28:21.115Z,1.73
2023-04-03T23:30:48.277Z,1.92
2023-04-03T23:33:15.594Z,1.83
2023-04-03T23:35:46.518Z,2.95
2023-04-03T23:38:13.964Z,1.77
2023-04-03T23:40:45.324Z,2.00
2023-04-03T23:43:12.818Z,1.60
2023-04-03T23:45:39.974Z,2.22
2023-04-03T23:48:07.300Z,2.00
2023-04-03T23:50:34.207Z,1.77
2023-04-03T23:53:01.082Z,1.70
2023-04-03T23:55:27.993Z,1.73
2023-04-03T23:57:54.930Z,1.60
